createdAt,value
2022-12-31T00:01:16.839Z,10.86
2022-12-31T00:03:44.144Z,10.93
2022-12-31T00:06:20.821Z,10.99
2022-12-31T00:08:47.672Z,11.08
2022-12-31T00:11:15.454Z,11.12
2022-12-31T00:13:43.139Z,11.15
2022-12-31T00:16:12.721Z,11.22
2022-12-31T00:18:39.314Z,11.29
2022-12-31T00:21:07.939Z,11.34
2022-12-31T00:23:35.368Z,11.42
2022-12-31T00:26:09.936Z,11.46
2022-12-31T00:28:37.624Z,11.49
2022-12-31T00:31:16.274Z,11.52
2022-12-31T00:33:43.806Z,11.57
2022-12-31T00:36:15.431Z,11.59
2022-12-31T00:38:43.907Z,11.66
2022-12-31T00:41:11.145Z,11.60
2022-12-31T00:43:37.991Z,11.69
2022-12-31T00:46:06.358Z,11.69
2022-12-31T00:48:33.856Z,11.67
2022-12-31T00:51:01.228Z,11.70
2022-12-31T00:53:28.314Z,11.70
2022-12-31T00:56:13.188Z,11.80
2022-12-31T00:58:39.592Z,11.80
2022-12-31T01:01:09.892Z,11.76
2022-12-31T01:03:36.541Z,11.74
2022-12-31T01:06:02.907Z,11.80
2022-12-31T01:08:29.251Z,11.76
2022-12-31T01:11:14.010Z,11.78
2022-12-31T01:13:40.378Z,11.91
2022-12-31T01:16:09.054Z,11.97
2022-12-31T01:18:35.603Z,12.09
2022-12-31T01:21:04.016Z,11.95
2022-12-31T01:23:31.036Z,11.95
2022-12-31T01:26:01.249Z,11.95
2022-12-31T01:28:28.420Z,11.98
2022-12-31T01:30:55.389Z,12.00
2022-12-31T01:33:22.085Z,12.09
2022-12-31T01:35:49.273Z,12.09
2022-12-31T01:38:15.749Z,12.12
2022-12-31T01:40:42.364Z,12.16
2022-12-31T01:43:16.347Z,12.20
2022-12-31T01:45:45.790Z,12.17
2022-12-31T01:48:17.326Z,12.22
2022-12-31T01:50:46.481Z,12.19
2022-12-31T01:53:14.385Z,12.15
2022-12-31T01:55:50.190Z,12.23
2022-12-31T01:58:27.543Z,12.25
2022-12-31T02:00:54.954Z,12.31
2022-12-31T02:03:22.821Z,12.35
2022-12-31T02:06:03.269Z,12.37
2022-12-31T02:08:30.046Z,12.35
2022-12-31T02:10:56.462Z,12.40
2022-12-31T02:13:23.197Z,12.44
2022-12-31T02:16:25.206Z,12.44
2022-12-31T02:19:07.746Z,12.41
2022-12-31T02:21:42.056Z,12.39
2022-12-31T02:24:32.097Z,12.39
2022-12-31T02:27:23.988Z,12.41
2022-12-31T02:30:01.845Z,12.39
2022-12-31T02:32:31.708Z,12.40
2022-12-31T02:35:16.660Z,12.38
2022-12-31T02:37:48.025Z,12.41
2022-12-31T02:40:17.319Z,12.45
2022-12-31T02:42:43.663Z,12.46
2022-12-31T02:45:15.006Z,12.44
2022-12-31T02:47:54.656Z,12.33
2022-12-31T02:50:56.953Z,12.34
2022-12-31T02:53:34.196Z,12.22
2022-12-31T02:56:16.548Z,12.19
2022-12-31T02:59:24.951Z,12.16
2022-12-31T03:02:14.411Z,12.22
2022-12-31T03:04:49.449Z,12.20
2022-12-31T03:07:21.756Z,12.16
2022-12-31T03:09:48.736Z,12.19
2022-12-31T03:12:35.536Z,12.08
2022-12-31T03:15:06.484Z,12.03
2022-12-31T03:17:33.937Z,12.10
2022-12-31T03:20:18.971Z,12.08
2022-12-31T03:22:45.693Z,12.13
2022-12-31T03:25:37.873Z,12.07
2022-12-31T03:28:12.360Z,12.14
2022-12-31T03:30:41.957Z,12.17
2022-12-31T03:33:08.951Z,12.16
2022-12-31T03:35:37.281Z,12.27
2022-12-31T03:38:04.687Z,12.42
2022-12-31T03:40:32.709Z,12.48
2022-12-31T03:42:59.104Z,12.59
2022-12-31T03:45:25.473Z,12.63
2022-12-31T03:47:52.040Z,12.72
2022-12-31T03:50:19.937Z,12.72
2022-12-31T03:52:46.454Z,12.73
2022-12-31T03:55:13.265Z,12.67
2022-12-31T03:57:40.061Z,12.68
2022-12-31T04:00:09.963Z,12.71
2022-12-31T04:02:36.763Z,12.75
2022-12-31T04:05:03.614Z,12.80
2022-12-31T04:07:29.981Z,12.78
2022-12-31T04:09:57.026Z,12.78
2022-12-31T04:12:23.371Z,12.73
2022-12-31T04:14:49.748Z,12.71
2022-12-31T04:17:16.082Z,12.77
2022-12-31T04:19:42.441Z,12.75
2022-12-31T04:22:08.988Z,12.64
2022-12-31T04:24:35.309Z,12.62
2022-12-31T04:27:07.235Z,12.51
2022-12-31T04:29:34.411Z,12.35
2022-12-31T04:32:01.200Z,12.42
2022-12-31T04:34:27.804Z,12.42
2022-12-31T04:36:54.222Z,12.48
2022-12-31T04:39:20.642Z,12.56
2022-12-31T04:41:47.137Z,12.54
2022-12-31T04:44:13.520Z,12.59
2022-12-31T04:46:39.869Z,12.68
2022-12-31T04:49:06.332Z,12.69
2022-12-31T04:51:33.643Z,12.66
2022-12-31T04:54:00.451Z,12.58
2022-12-31T04:56:28.297Z,12.56
2022-12-31T04:58:55.457Z,12.66
2022-12-31T05:01:22.485Z,12.72
2022-12-31T05:03:49.269Z,12.70
2022-12-31T05:06:18.540Z,12.74
2022-12-31T05:08:45.442Z,12.74
2022-12-31T05:11:12.261Z,12.75
2022-12-31T05:13:39.116Z,12.81
2022-12-31T05:16:06.433Z,12.77
2022-12-31T05:18:33.473Z,12.77
2022-12-31T05:21:00.092Z,12.77
2022-12-31T05:23:26.846Z,12.80
2022-12-31T05:25:53.428Z,12.79
2022-12-31T05:28:20.209Z,12.81
2022-12-31T05:30:50.101Z,12.74
2022-12-31T05:33:17.638Z,12.73
2022-12-31T05:35:44.737Z,12.73
2022-12-31T05:38:11.513Z,12.83
2022-12-31T05:40:38.100Z,12.85
2022-12-31T05:43:04.449Z,12.75
2022-12-31T05:45:31.424Z,12.61
2022-12-31T05:47:58.254Z,12.66
2022-12-31T05:50:24.586Z,12.58
2022-12-31T05:52:50.950Z,12.64
2022-12-31T05:55:17.503Z,12.65
2022-12-31T05:57:43.851Z,12.46
2022-12-31T06:00:10.857Z,12.25
2022-12-31T06:02:37.260Z,12.24
2022-12-31T06:05:04.087Z,12.16
2022-12-31T06:07:30.431Z,12.03
2022-12-31T06:09:56.773Z,12.05
2022-12-31T06:12:23.113Z,12.07
2022-12-31T06:14:49.470Z,12.09
2022-12-31T06:17:15.810Z,12.16
2022-12-31T06:19:42.140Z,12.08
2022-12-31T06:22:08.486Z,12.03
2022-12-31T06:24:34.829Z,12.01
2022-12-31T06:27:01.163Z,11.97
2022-12-31T06:29:27.563Z,11.97
2022-12-31T06:31:53.891Z,11.92
2022-12-31T06:34:20.233Z,11.86
2022-12-31T06:36:46.568Z,11.88
2022-12-31T06:39:12.942Z,11.82
2022-12-31T06:41:39.298Z,11.87
2022-12-31T06:44:05.978Z,11.94
2022-12-31T06:46:32.407Z,11.89
2022-12-31T06:48:58.744Z,11.85
2022-12-31T06:51:25.099Z,11.81
2022-12-31T06:53:51.829Z,11.86
2022-12-31T06:56:31.267Z,11.85
2022-12-31T06:59:00.364Z,11.71
2022-12-31T07:01:45.822Z,11.78
2022-12-31T07:04:33.376Z,11.82
2022-12-31T07:07:14.982Z,11.90
2022-12-31T07:09:57.317Z,11.81
2022-12-31T07:12:40.283Z,11.76
2022-12-31T07:15:16.590Z,11.73
2022-12-31T07:17:54.833Z,11.69
2022-12-31T07:20:21.685Z,11.58
2022-12-31T07:22:48.435Z,11.42
2022-12-31T07:25:16.953Z,11.46
2022-12-31T07:28:08.415Z,11.61
2022-12-31T07:30:46.924Z,11.62
2022-12-31T07:33:27.964Z,11.54
2022-12-31T07:36:05.411Z,11.50
2022-12-31T07:39:05.648Z,11.52
2022-12-31T07:41:50.580Z,11.60
2022-12-31T07:44:34.088Z,11.56
2022-12-31T07:47:03.245Z,11.59
2022-12-31T07:49:32.853Z,11.53
2022-12-31T07:51:59.570Z,11.49
2022-12-31T07:54:26.003Z,11.46
2022-12-31T07:56:52.455Z,11.46
2022-12-31T07:59:36.810Z,11.49
2022-12-31T08:02:08.128Z,11.46
2022-12-31T08:04:49.636Z,11.49
2022-12-31T08:07:25.925Z,11.48
2022-12-31T08:10:18.206Z,11.47
2022-12-31T08:12:46.876Z,11.47
2022-12-31T08:15:15.953Z,11.51
2022-12-31T08:17:43.282Z,11.52
2022-12-31T08:20:17.535Z,11.61
2022-12-31T08:22:51.019Z,11.70
2022-12-31T08:25:33.576Z,11.71
2022-12-31T08:28:12.675Z,11.78
2022-12-31T08:30:52.257Z,11.96
2022-12-31T08:33:44.336Z,11.99
2022-12-31T08:36:38.467Z,12.01
2022-12-31T08:39:33.225Z,12.11
2022-12-31T08:42:03.679Z,12.29
2022-12-31T08:44:45.046Z,12.22
2022-12-31T08:47:38.711Z,12.35
2022-12-31T08:50:05.893Z,12.27
2022-12-31T08:52:32.533Z,12.34
2022-12-31T08:54:59.332Z,12.27
2022-12-31T08:57:57.623Z,12.21
2022-12-31T09:00:24.386Z,12.31
2022-12-31T09:02:56.675Z,12.38
2022-12-31T09:05:34.988Z,12.52
2022-12-31T09:08:28.395Z,12.66
2022-12-31T09:11:23.508Z,12.79
2022-12-31T09:14:30.649Z,13.09
2022-12-31T09:17:24.795Z,13.04
2022-12-31T09:19:51.700Z,13.21
2022-12-31T09:22:18.279Z,13.31
2022-12-31T09:24:44.849Z,13.23
2022-12-31T09:27:27.416Z,13.29
2022-12-31T09:30:09.808Z,13.42
2022-12-31T09:33:00.597Z,13.57
2022-12-31T09:35:38.421Z,13.64
2022-12-31T09:38:16.416Z,14.00
2022-12-31T09:41:11.412Z,14.34
2022-12-31T09:44:03.383Z,14.23
2022-12-31T09:47:09.134Z,14.37
2022-12-31T09:50:18.747Z,14.49
2022-12-31T09:53:00.699Z,14.52
2022-12-31T09:55:37.940Z,14.56
2022-12-31T09:58:35.304Z,14.68
2022-12-31T10:01:22.698Z,14.41
2022-12-31T10:04:10.764Z,14.54
2022-12-31T10:07:00.475Z,14.66
2022-12-31T10:09:41.442Z,14.82
2022-12-31T10:12:22.838Z,14.78
2022-12-31T10:15:27.166Z,15.03
2022-12-31T10:18:17.941Z,14.98
2022-12-31T10:21:20.808Z,15.03
2022-12-31T10:23:54.032Z,14.79
2022-12-31T10:26:53.541Z,14.81
2022-12-31T10:29:47.653Z,14.59
2022-12-31T10:32:43.471Z,14.31
2022-12-31T10:35:31.740Z,14.25
2022-12-31T10:38:14.051Z,14.17
2022-12-31T10:40:58.531Z,14.27
2022-12-31T10:43:27.755Z,14.21
2022-12-31T10:46:29.655Z,14.21
2022-12-31T10:49:11.284Z,14.16
2022-12-31T10:52:10.476Z,14.18
2022-12-31T10:54:46.039Z,14.25
2022-12-31T10:57:36.427Z,14.28
2022-12-31T11:00:16.610Z,14.37
2022-12-31T11:03:17.265Z,14.42
2022-12-31T11:06:26.577Z,14.51
2022-12-31T11:09:04.948Z,14.59
2022-12-31T11:12:30.169Z,14.65
2022-12-31T11:14:56.496Z,14.77
2022-12-31T11:17:37.374Z,14.80
2022-12-31T11:20:03.911Z,14.95
2022-12-31T11:22:58.214Z,15.06
2022-12-31T11:25:55.684Z,15.14
2022-12-31T11:28:41.516Z,15.14
2022-12-31T11:31:39.340Z,15.28
2022-12-31T11:34:30.746Z,15.39
2022-12-31T11:37:16.120Z,15.44
2022-12-31T11:40:15.033Z,15.57
2022-12-31T11:43:00.794Z,15.52
2022-12-31T11:45:50.797Z,15.56
2022-12-31T11:48:48.064Z,15.46
2022-12-31T11:51:52.131Z,15.48
2022-12-31T11:54:41.226Z,15.44
2022-12-31T11:57:16.548Z,15.46
2022-12-31T11:59:43.112Z,15.44
2022-12-31T12:02:24.792Z,15.47
2022-12-31T12:04:52.443Z,15.47
2022-12-31T12:07:19.973Z,15.49
2022-12-31T12:09:46.645Z,15.48
2022-12-31T12:12:13.520Z,15.53
2022-12-31T12:14:42.906Z,15.59
2022-12-31T12:17:32.146Z,15.64
2022-12-31T12:20:13.350Z,15.66
2022-12-31T12:22:49.653Z,15.68
2022-12-31T12:25:20.937Z,15.77
2022-12-31T12:27:47.481Z,15.84
2022-12-31T12:30:26.155Z,15.89
2022-12-31T12:33:01.681Z,15.90
2022-12-31T12:35:31.663Z,15.86
2022-12-31T12:38:07.662Z,15.78
2022-12-31T12:40:34.947Z,15.75
2022-12-31T12:43:02.232Z,15.86
2022-12-31T12:45:40.601Z,15.99
2022-12-31T12:48:18.695Z,15.91
2022-12-31T12:50:48.154Z,16.12
2022-12-31T12:53:39.370Z,16.23
2022-12-31T12:56:18.665Z,16.18
2022-12-31T12:59:10.050Z,16.27
2022-12-31T13:01:46.520Z,16.19
2022-12-31T13:04:40.455Z,16.29
2022-12-31T13:07:24.509Z,16.32
2022-12-31T13:10:16.189Z,16.43
2022-12-31T13:15:50.108Z,16.23
2022-12-31T13:18:54.679Z,16.19
2022-12-31T13:21:23.727Z,16.24
2022-12-31T13:23:53.374Z,16.42
2022-12-31T13:26:24.088Z,16.60
2022-12-31T13:28:52.577Z,16.70
2022-12-31T13:31:26.083Z,16.78
2022-12-31T13:34:01.199Z,16.76
2022-12-31T13:36:29.774Z,16.68
2022-12-31T13:39:00.641Z,16.95
2022-12-31T13:41:31.830Z,16.89
2022-12-31T13:44:26.957Z,17.14
2022-12-31T13:47:12.972Z,17.30
2022-12-31T13:49:56.250Z,17.38
2022-12-31T13:53:00.129Z,17.34
2022-12-31T13:55:32.288Z,17.28
2022-12-31T13:58:23.011Z,17.28
2022-12-31T14:00:56.232Z,17.46
2022-12-31T14:03:31.571Z,17.54
2022-12-31T14:06:06.935Z,17.61
2022-12-31T14:08:33.325Z,17.68
2022-12-31T14:11:44.083Z,17.69
2022-12-31T14:14:18.668Z,17.70
2022-12-31T14:16:52.998Z,17.66
2022-12-31T14:19:44.185Z,17.62
2022-12-31T14:22:30.718Z,17.63
2022-12-31T14:25:00.727Z,17.61
2022-12-31T14:27:31.908Z,17.54
2022-12-31T14:30:03.044Z,17.56
2022-12-31T14:32:38.443Z,17.48
2022-12-31T14:35:22.394Z,17.47
2022-12-31T14:38:01.117Z,17.38
2022-12-31T14:40:54.034Z,17.21
2022-12-31T14:43:52.766Z,17.34
2022-12-31T14:46:38.872Z,17.16
2022-12-31T14:49:52.924Z,17.14
2022-12-31T14:52:25.548Z,17.26
2022-12-31T14:55:01.459Z,17.23
2022-12-31T14:58:16.794Z,17.24
2022-12-31T15:00:38.112Z,17.21
2022-12-31T15:03:23.418Z,17.18
2022-12-31T15:05:58.956Z,17.13
2022-12-31T15:09:07.918Z,17.05
2022-12-31T15:11:48.254Z,16.99
2022-12-31T15:14:26.695Z,17.05
2022-12-31T15:17:06.593Z,17.02
2022-12-31T15:19:51.424Z,16.96
2022-12-31T15:22:44.933Z,16.95
2022-12-31T15:25:40.396Z,16.94
2022-12-31T15:28:30.454Z,17.03
2022-12-31T15:31:03.552Z,17.05
2022-12-31T15:33:34.480Z,16.88
2022-12-31T15:36:13.730Z,17.00
2022-12-31T15:38:41.605Z,17.03
2022-12-31T15:41:18.536Z,17.04
2022-12-31T15:43:59.523Z,17.05
2022-12-31T15:46:31.564Z,17.01
2022-12-31T15:49:06.819Z,16.67
2022-12-31T15:52:01.874Z,16.35
2022-12-31T15:54:41.236Z,16.20
2022-12-31T15:57:16.250Z,15.27
2022-12-31T15:59:43.578Z,15.12
2022-12-31T16:02:21.062Z,15.07
2022-12-31T16:04:48.906Z,15.00
2022-12-31T16:07:17.005Z,14.82
2022-12-31T16:09:48.176Z,14.83
2022-12-31T16:12:32.508Z,14.83
2022-12-31T16:15:01.529Z,14.89
2022-12-31T16:17:33.737Z,14.87
2022-12-31T16:20:01.872Z,14.92
2022-12-31T16:22:36.791Z,15.00
2022-12-31T16:25:30.110Z,15.02
2022-12-31T16:27:51.792Z,15.06
2022-12-31T16:30:30.299Z,15.06
2022-12-31T16:33:05.287Z,15.06
2022-12-31T16:35:34.356Z,15.10
2022-12-31T16:38:15.288Z,15.07
2022-12-31T16:40:45.511Z,15.10
2022-12-31T16:43:37.682Z,15.14
2022-12-31T16:46:18.696Z,15.13
2022-12-31T16:48:47.985Z,15.11
2022-12-31T16:51:19.738Z,15.18
2022-12-31T16:53:47.364Z,15.19
2022-12-31T16:56:22.929Z,15.26
2022-12-31T16:58:53.161Z,15.25
2022-12-31T17:01:30.245Z,15.31
2022-12-31T17:04:00.564Z,15.37
2022-12-31T17:06:28.335Z,15.42
2022-12-31T17:08:59.364Z,15.56
2022-12-31T17:11:41.805Z,15.64
2022-12-31T17:14:11.040Z,15.72
2022-12-31T17:16:59.538Z,15.79
2022-12-31T17:19:35.169Z,15.85
2022-12-31T17:22:03.146Z,15.81
2022-12-31T17:24:29.844Z,15.52
2022-12-31T17:27:04.833Z,15.26
2022-12-31T17:29:31.823Z,15.20
2022-12-31T17:32:17.862Z,15.17
2022-12-31T17:34:49.168Z,15.20
2022-12-31T17:37:24.968Z,15.25
2022-12-31T17:40:10.880Z,15.30
2022-12-31T17:42:46.068Z,15.25
2022-12-31T17:45:20.233Z,15.24
2022-12-31T17:47:50.850Z,15.17
2022-12-31T17:50:20.391Z,15.13
2022-12-31T17:52:47.528Z,15.11
2022-12-31T17:55:13.995Z,15.14
2022-12-31T17:57:50.242Z,15.13
2022-12-31T18:00:19.759Z,15.11
2022-12-31T18:02:46.275Z,15.20
2022-12-31T18:05:19.953Z,15.21
2022-12-31T18:07:47.169Z,15.10
2022-12-31T18:10:15.295Z,15.18
2022-12-31T18:12:44.008Z,15.11
2022-12-31T18:15:15.991Z,15.12
2022-12-31T18:17:42.908Z,15.27
2022-12-31T18:20:09.901Z,15.38
2022-12-31T18:22:36.930Z,15.42
2022-12-31T18:25:04.088Z,15.45
2022-12-31T18:27:30.693Z,15.41
2022-12-31T18:30:04.085Z,15.51
2022-12-31T18:32:32.841Z,15.63
2022-12-31T18:34:59.288Z,15.79
2022-12-31T18:37:28.182Z,15.98
2022-12-31T18:39:54.631Z,15.83
2022-12-31T18:42:25.375Z,15.42
2022-12-31T18:44:51.730Z,15.43
2022-12-31T18:47:22.961Z,15.51
2022-12-31T18:49:50.060Z,15.69
2022-12-31T18:52:21.509Z,15.88
2022-12-31T18:54:48.302Z,15.89
2022-12-31T18:57:15.956Z,16.08
2022-12-31T18:59:42.309Z,16.15
2022-12-31T19:02:20.560Z,16.19
2022-12-31T19:04:47.933Z,16.27
2022-12-31T19:07:14.283Z,16.31
2022-12-31T19:09:45.506Z,16.37
2022-12-31T19:12:13.624Z,16.39
2022-12-31T19:14:40.383Z,16.40
2022-12-31T19:19:32.123Z,16.21
2022-12-31T19:21:58.488Z,16.17
2022-12-31T19:24:26.905Z,16.25
2022-12-31T19:26:54.176Z,16.28
2022-12-31T19:29:22.724Z,15.94
2022-12-31T19:31:49.412Z,15.98
2022-12-31T19:34:16.516Z,16.07
2022-12-31T19:36:44.267Z,15.74
2022-12-31T19:39:15.739Z,15.54
2022-12-31T19:41:43.669Z,15.59
2022-12-31T19:44:18.524Z,15.60
2022-12-31T19:46:46.007Z,15.35
2022-12-31T19:49:13.968Z,15.16
2022-12-31T19:51:41.094Z,15.02
2022-12-31T19:54:07.921Z,15.08
2022-12-31T19:56:34.272Z,14.96
2022-12-31T19:59:05.646Z,14.81
2022-12-31T20:01:32.077Z,14.97
2022-12-31T20:03:58.495Z,15.06
2022-12-31T20:06:24.890Z,15.23
2022-12-31T20:08:51.226Z,15.40
2022-12-31T20:11:20.587Z,15.08
2022-12-31T20:13:48.201Z,15.23
2022-12-31T20:16:17.032Z,15.41
2022-12-31T20:18:44.877Z,15.53
2022-12-31T20:21:14.419Z,15.60
2022-12-31T20:23:40.832Z,15.67
2022-12-31T20:26:07.173Z,15.61
2022-12-31T20:28:33.600Z,15.66
2022-12-31T20:31:05.274Z,15.50
2022-12-31T20:33:31.681Z,15.09
2022-12-31T20:36:02.228Z,15.06
2022-12-31T20:38:28.548Z,15.26
2022-12-31T20:40:54.899Z,15.34
2022-12-31T20:43:21.250Z,15.44
2022-12-31T20:45:47.742Z,15.37
2022-12-31T20:48:14.292Z,15.37
2022-12-31T20:50:40.835Z,15.42
2022-12-31T20:53:07.193Z,15.35
2022-12-31T20:55:37.319Z,15.36
2022-12-31T20:58:04.922Z,15.40
2022-12-31T21:00:32.097Z,15.23
2022-12-31T21:03:10.464Z,15.32
2022-12-31T21:05:51.645Z,15.31
2022-12-31T21:08:18.332Z,15.39
2022-12-31T21:10:47.804Z,15.51
2022-12-31T21:13:14.965Z,15.53
2022-12-31T21:15:41.348Z,15.51
2022-12-31T21:18:07.683Z,15.39
2022-12-31T21:20:34.021Z,15.37
2022-12-31T21:23:00.320Z,15.41
2022-12-31T21:25:26.654Z,15.41
2022-12-31T21:27:53.001Z,15.38
2022-12-31T21:30:20.840Z,15.39
2022-12-31T21:32:47.948Z,15.45
2022-12-31T21:35:42.281Z,15.49
2022-12-31T21:38:05.642Z,15.42
2022-12-31T21:40:33.219Z,15.38
2022-12-31T21:42:59.618Z,15.36
2022-12-31T21:45:26.028Z,14.96
2022-12-31T21:48:10.971Z,14.09
2022-12-31T21:50:37.284Z,13.66
2022-12-31T21:53:03.617Z,13.49
2022-12-31T21:55:48.361Z,13.44
2022-12-31T21:58:25.770Z,13.52
2022-12-31T22:01:12.033Z,13.85
2022-12-31T22:03:38.614Z,14.04
2022-12-31T22:06:12.028Z,14.02
2022-12-31T22:08:46.115Z,14.12
2022-12-31T22:11:13.985Z,14.19
2022-12-31T22:13:41.444Z,14.60
2022-12-31T22:16:08.635Z,14.75
2022-12-31T22:18:39.100Z,15.03
2022-12-31T22:21:18.300Z,15.12
2022-12-31T22:23:47.823Z,15.04
2022-12-31T22:26:15.815Z,15.05
2022-12-31T22:28:43.934Z,14.96
2022-12-31T22:31:16.624Z,14.98
2022-12-31T22:33:43.846Z,14.94
2022-12-31T22:36:13.165Z,14.99
2022-12-31T22:38:39.796Z,14.97
2022-12-31T22:41:23.174Z,14.89
2022-12-31T22:43:57.219Z,14.84
2022-12-31T22:46:28.931Z,14.87
2022-12-31T22:48:57.816Z,14.91
2022-12-31T22:51:24.367Z,14.88
2022-12-31T22:53:50.691Z,14.86
2022-12-31T22:56:18.629Z,14.78
2022-12-31T22:58:45.446Z,14.78
2022-12-31T23:01:20.509Z,14.72
2022-12-31T23:03:48.113Z,14.76
2022-12-31T23:06:15.131Z,14.68
2022-12-31T23:08:41.982Z,14.61
2022-12-31T23:11:11.347Z,14.53
2022-12-31T23:14:01.467Z,14.46
2022-12-31T23:16:48.312Z,14.41
2022-12-31T23:19:34.593Z,14.50
2022-12-31T23:22:19.840Z,14.73
2022-12-31T23:24:46.193Z,14.80
2022-12-31T23:27:12.611Z,14.80
2022-12-31T23:29:46.233Z,14.75
2022-12-31T23:32:17.731Z,14.68
2022-12-31T23:34:45.236Z,14.53
2022-12-31T23:37:13.442Z,14.41
2022-12-31T23:39:40.082Z,14.28
2022-12-31T23:42:06.546Z,14.37
2022-12-31T23:44:33.078Z,14.33
2022-12-31T23:46:59.575Z,14.18
2022-12-31T23:49:25.956Z,14.28
2022-12-31T23:51:52.388Z,14.19
2022-12-31T23:54:18.728Z,14.36
2022-12-31T23:56:45.167Z,14.57
2022-12-31T23:59:12.735Z,14.63
